sensor_id;sensor_type;location;lat;lon;timestamp;P1;durP1;ratioP1;P2;durP2;ratioP2
69246;SDS011;56358;56.328;43.992;2024-03-23T00:55:41;9.98;;;3.50;;
69246;SDS011;56358;56.328;43.992;2024-03-23T00:57:42;8.48;;;3.83;;
69246;SDS011;56358;56.328;43.992;2024-03-23T00:59:43;8.20;;;4.05;;
69246;SDS011;56358;56.328;43.992;2024-03-23T01:01:43;10.40;;;4.28;;
69246;SDS011;56358;56.328;43.992;2024-03-23T01:03:44;5.22;;;2.55;;
69246;SDS011;56358;56.328;43.992;2024-03-23T01:05:45;12.05;;;3.92;;
69246;SDS011;56358;56.328;43.992;2024-03-23T01:07:45;10.27;;;3.67;;
69246;SDS011;56358;56.328;43.992;2024-03-23T01:09:46;9.30;;;3.58;;
69246;SDS011;56358;56.328;43.992;2024-03-23T01:11:47;7.70;;;3.42;;
69246;SDS011;56358;56.328;43.992;2024-03-23T01:13:47;9.38;;;4.10;;
69246;SDS011;56358;56.328;43.992;2024-03-23T01:15:48;8.35;;;3.15;;
69246;SDS011;56358;56.328;43.992;2024-03-23T01:17:51;9.52;;;3.97;;
69246;SDS011;56358;56.328;43.992;2024-03-23T01:19:51;7.75;;;3.47;;
69246;SDS011;56358;56.328;43.992;2024-03-23T01:21:52;5.93;;;3.00;;
69246;SDS011;56358;56.328;43.992;2024-03-23T01:23:53;7.88;;;3.83;;
69246;SDS011;56358;56.328;43.992;2024-03-23T01:25:54;6.97;;;4.07;;
69246;SDS011;56358;56.328;43.992;2024-03-23T01:27:55;7.22;;;3.55;;
69246;SDS011;56358;56.328;43.992;2024-03-23T01:29:55;9.55;;;4.10;;
69246;SDS011;56358;56.328;43.992;2024-03-23T01:31:56;7.82;;;3.33;;
69246;SDS011;56358;56.328;43.992;2024-03-23T01:33:57;7.88;;;3.95;;
69246;SDS011;56358;56.328;43.992;2024-03-23T01:35:58;10.27;;;3.72;;
69246;SDS011;56358;56.328;43.992;2024-03-23T01:37:59;11.25;;;4.00;;
69246;SDS011;56358;56.328;43.992;2024-03-23T01:40:00;13.82;;;4.35;;
69246;SDS011;56358;56.328;43.992;2024-03-23T01:42:00;13.07;;;4.35;;
69246;SDS011;56358;56.328;43.992;2024-03-23T01:44:04;9.38;;;3.53;;
69246;SDS011;56358;56.328;43.992;2024-03-23T01:46:07;10.20;;;4.00;;
69246;SDS011;56358;56.328;43.992;2024-03-23T01:48:08;11.20;;;3.90;;
69246;SDS011;56358;56.328;43.992;2024-03-23T01:50:10;10.63;;;4.28;;
69246;SDS011;56358;56.328;43.992;2024-03-23T01:52:11;11.25;;;4.43;;
69246;SDS011;56358;56.328;43.992;2024-03-23T01:54:12;10.93;;;5.07;;
69246;SDS011;56358;56.328;43.992;2024-03-23T01:56:13;8.98;;;4.07;;
69246;SDS011;56358;56.328;43.992;2024-03-23T01:58:13;11.07;;;4.75;;
69246;SDS011;56358;56.328;43.992;2024-03-23T02:00:14;15.55;;;4.88;;
69246;SDS011;56358;56.328;43.992;2024-03-23T02:02:15;12.82;;;4.78;;
69246;SDS011;56358;56.328;43.992;2024-03-23T02:04:17;11.82;;;4.43;;
69246;SDS011;56358;56.328;43.992;2024-03-23T02:06:18;10.10;;;4.28;;
69246;SDS011;56358;56.328;43.992;2024-03-23T02:08:22;8.80;;;4.55;;
69246;SDS011;56358;56.328;43.992;2024-03-23T02:10:24;11.82;;;4.97;;
69246;SDS011;56358;56.328;43.992;2024-03-23T02:12:24;12.13;;;4.53;;
69246;SDS011;56358;56.328;43.992;2024-03-23T02:14:25;13.23;;;5.07;;
69246;SDS011;56358;56.328;43.992;2024-03-23T02:16:26;11.77;;;5.18;;
69246;SDS011;56358;56.328;43.992;2024-03-23T02:18:27;11.63;;;5.05;;
69246;SDS011;56358;56.328;43.992;2024-03-23T02:20:27;12.13;;;5.10;;
69246;SDS011;56358;56.328;43.992;2024-03-23T02:22:37;9.32;;;5.32;;
69246;SDS011;56358;56.328;43.992;2024-03-23T02:24:39;10.82;;;4.85;;
69246;SDS011;56358;56.328;43.992;2024-03-23T02:26:39;15.05;;;5.85;;
69246;SDS011;56358;56.328;43.992;2024-03-23T02:28:40;13.20;;;5.28;;
69246;SDS011;56358;56.328;43.992;2024-03-23T02:30:41;14.15;;;5.97;;
69246;SDS011;56358;56.328;43.992;2024-03-23T02:32:42;14.35;;;4.93;;
69246;SDS011;56358;56.328;43.992;2024-03-23T02:34:42;11.57;;;5.18;;
69246;SDS011;56358;56.328;43.992;2024-03-23T02:36:43;14.10;;;5.50;;
69246;SDS011;56358;56.328;43.992;2024-03-23T02:38:44;14.75;;;5.22;;
69246;SDS011;56358;56.328;43.992;2024-03-23T02:40:45;12.55;;;5.25;;
69246;SDS011;56358;56.328;43.992;2024-03-23T02:42:46;12.23;;;5.40;;
69246;SDS011;56358;56.328;43.992;2024-03-23T02:44:46;10.43;;;4.75;;
69246;SDS011;56358;56.328;43.992;2024-03-23T02:46:49;10.17;;;5.07;;
69246;SDS011;56358;56.328;43.992;2024-03-23T02:48:49;11.18;;;5.30;;
69246;SDS011;56358;56.328;43.992;2024-03-23T02:50:50;15.50;;;5.53;;
69246;SDS011;56358;56.328;43.992;2024-03-23T02:52:51;16.02;;;6.15;;
69246;SDS011;56358;56.328;43.992;2024-03-23T02:54:52;16.20;;;5.10;;
69246;SDS011;56358;56.328;43.992;2024-03-23T02:56:52;14.05;;;6.15;;
69246;SDS011;56358;56.328;43.992;2024-03-23T02:58:53;11.15;;;5.80;;
69246;SDS011;56358;56.328;43.992;2024-03-23T03:00:54;14.93;;;6.72;;
69246;SDS011;56358;56.328;43.992;2024-03-23T03:02:55;15.27;;;6.53;;
69246;SDS011;56358;56.328;43.992;2024-03-23T03:04:55;18.05;;;5.97;;
69246;SDS011;56358;56.328;43.992;2024-03-23T03:06:56;19.42;;;5.97;;
69246;SDS011;56358;56.328;43.992;2024-03-23T03:08:57;13.07;;;6.43;;
69246;SDS011;56358;56.328;43.992;2024-03-23T03:10:58;15.02;;;5.75;;
69246;SDS011;56358;56.328;43.992;2024-03-23T03:12:58;15.40;;;6.43;;
69246;SDS011;56358;56.328;43.992;2024-03-23T03:14:59;17.45;;;7.28;;
69246;SDS011;56358;56.328;43.992;2024-03-23T03:17:00;23.73;;;6.57;;
69246;SDS011;56358;56.328;43.992;2024-03-23T03:19:00;15.32;;;6.25;;
69246;SDS011;56358;56.328;43.992;2024-03-23T03:21:01;16.77;;;5.88;;
69246;SDS011;56358;56.328;43.992;2024-03-23T03:23:02;11.27;;;5.00;;
69246;SDS011;56358;56.328;43.992;2024-03-23T03:25:03;17.00;;;7.03;;
69246;SDS011;56358;56.328;43.992;2024-03-23T03:27:05;18.73;;;7.00;;
69246;SDS011;56358;56.328;43.992;2024-03-23T03:29:07;19.70;;;6.57;;
69246;SDS011;56358;56.328;43.992;2024-03-23T03:31:07;16.63;;;6.43;;
69246;SDS011;56358;56.328;43.992;2024-03-23T03:33:08;18.38;;;7.13;;
69246;SDS011;56358;56.328;43.992;2024-03-23T03:35:09;12.07;;;6.10;;
69246;SDS011;56358;56.328;43.992;2024-03-23T03:37:09;18.98;;;7.35;;
69246;SDS011;56358;56.328;43.992;2024-03-23T03:39:10;14.65;;;6.05;;
69246;SDS011;56358;56.328;43.992;2024-03-23T03:41:11;17.67;;;5.47;;
69246;SDS011;56358;56.328;43.992;2024-03-23T03:43:12;15.60;;;6.05;;
69246;SDS011;56358;56.328;43.992;2024-03-23T03:45:13;18.63;;;6.45;;
69246;SDS011;56358;56.328;43.992;2024-03-23T03:47:13;17.50;;;6.07;;
69246;SDS011;56358;56.328;43.992;2024-03-23T03:49:14;14.45;;;5.47;;
69246;SDS011;56358;56.328;43.992;2024-03-23T03:51:15;14.35;;;5.32;;
69246;SDS011;56358;56.328;43.992;2024-03-23T03:53:16;16.80;;;5.32;;
69246;SDS011;56358;56.328;43.992;2024-03-23T03:55:17;13.80;;;5.90;;
69246;SDS011;56358;56.328;43.992;2024-03-23T03:57:18;17.38;;;6.82;;
69246;SDS011;56358;56.328;43.992;2024-03-23T03:59:19;15.00;;;6.32;;
69246;SDS011;56358;56.328;43.992;2024-03-23T04:01:20;13.45;;;6.13;;
69246;SDS011;56358;56.328;43.992;2024-03-23T04:03:21;19.75;;;6.93;;
69246;SDS011;56358;56.328;43.992;2024-03-23T04:05:22;16.05;;;7.35;;
69246;SDS011;56358;56.328;43.992;2024-03-23T04:07:22;14.43;;;5.72;;
69246;SDS011;56358;56.328;43.992;2024-03-23T04:09:23;19.42;;;6.53;;
69246;SDS011;56358;56.328;43.992;2024-03-23T04:11:24;13.13;;;6.45;;
69246;SDS011;56358;56.328;43.992;2024-03-23T04:13:25;16.42;;;6.95;;
69246;SDS011;56358;56.328;43.992;2024-03-23T04:15:26;14.80;;;6.60;;
69246;SDS011;56358;56.328;43.992;2024-03-23T04:17:27;18.80;;;5.90;;
69246;SDS011;56358;56.328;43.992;2024-03-23T04:19:32;16.45;;;6.07;;
69246;SDS011;56358;56.328;43.992;2024-03-23T04:21:32;21.35;;;6.93;;
69246;SDS011;56358;56.328;43.992;2024-03-23T04:23:33;13.30;;;5.95;;
69246;SDS011;56358;56.328;43.992;2024-03-23T04:25:34;18.50;;;6.97;;
69246;SDS011;56358;56.328;43.992;2024-03-23T04:27:34;14.00;;;6.65;;
69246;SDS011;56358;56.328;43.992;2024-03-23T04:29:35;12.55;;;6.35;;
69246;SDS011;56358;56.328;43.992;2024-03-23T04:31:36;20.13;;;7.90;;
69246;SDS011;56358;56.328;43.992;2024-03-23T04:33:37;18.45;;;7.57;;
69246;SDS011;56358;56.328;43.992;2024-03-23T04:35:37;15.27;;;6.60;;
69246;SDS011;56358;56.328;43.992;2024-03-23T04:37:38;14.80;;;7.05;;
69246;SDS011;56358;56.328;43.992;2024-03-23T04:39:42;18.55;;;7.88;;
69246;SDS011;56358;56.328;43.992;2024-03-23T04:41:43;15.27;;;7.28;;
69246;SDS011;56358;56.328;43.992;2024-03-23T04:43:43;17.58;;;7.20;;
69246;SDS011;56358;56.328;43.992;2024-03-23T04:45:44;17.67;;;7.45;;
69246;SDS011;56358;56.328;43.992;2024-03-23T04:47:45;17.83;;;6.65;;
69246;SDS011;56358;56.328;43.992;2024-03-23T04:49:46;18.52;;;7.50;;
69246;SDS011;56358;56.328;43.992;2024-03-23T04:51:47;17.27;;;7.18;;
69246;SDS011;56358;56.328;43.992;2024-03-23T04:53:47;20.30;;;7.03;;
69246;SDS011;56358;56.328;43.992;2024-03-23T04:55:48;17.58;;;6.90;;
69246;SDS011;56358;56.328;43.992;2024-03-23T04:57:49;18.77;;;8.20;;
69246;SDS011;56358;56.328;43.992;2024-03-23T04:59:49;20.75;;;7.88;;
69246;SDS011;56358;56.328;43.992;2024-03-23T05:01:50;19.92;;;7.53;;
69246;SDS011;56358;56.328;43.992;2024-03-23T05:03:51;18.02;;;7.32;;
69246;SDS011;56358;56.328;43.992;2024-03-23T05:05:51;14.38;;;7.40;;
69246;SDS011;56358;56.328;43.992;2024-03-23T05:07:52;18.98;;;7.35;;
69246;SDS011;56358;56.328;43.992;2024-03-23T05:09:53;18.00;;;8.02;;
69246;SDS011;56358;56.328;43.992;2024-03-23T05:11:53;21.02;;;8.32;;
69246;SDS011;56358;56.328;43.992;2024-03-23T05:13:54;17.27;;;7.75;;
69246;SDS011;56358;56.328;43.992;2024-03-23T05:15:55;22.60;;;8.00;;
69246;SDS011;56358;56.328;43.992;2024-03-23T05:17:56;16.65;;;7.75;;
69246;SDS011;56358;56.328;43.992;2024-03-23T05:19:56;22.77;;;8.45;;
69246;SDS011;56358;56.328;43.992;2024-03-23T05:21:57;18.33;;;7.70;;
69246;SDS011;56358;56.328;43.992;2024-03-23T05:23:58;18.08;;;7.60;;
69246;SDS011;56358;56.328;43.992;2024-03-23T05:25:58;19.27;;;8.38;;
69246;SDS011;56358;56.328;43.992;2024-03-23T05:27:59;22.45;;;8.25;;
69246;SDS011;56358;56.328;43.992;2024-03-23T05:30:00;17.02;;;8.25;;
69246;SDS011;56358;56.328;43.992;2024-03-23T05:32:01;17.13;;;7.35;;
69246;SDS011;56358;56.328;43.992;2024-03-23T05:34:01;16.65;;;7.35;;
69246;SDS011;56358;56.328;43.992;2024-03-23T05:36:02;21.02;;;8.13;;
69246;SDS011;56358;56.328;43.992;2024-03-23T05:38:04;18.52;;;7.70;;
69246;SDS011;56358;56.328;43.992;2024-03-23T05:40:06;19.80;;;8.33;;
69246;SDS011;56358;56.328;43.992;2024-03-23T05:42:08;20.35;;;7.97;;
69246;SDS011;56358;56.328;43.992;2024-03-23T05:44:10;18.65;;;7.72;;
69246;SDS011;56358;56.328;43.992;2024-03-23T05:46:11;17.52;;;7.53;;
69246;SDS011;56358;56.328;43.992;2024-03-23T05:48:12;23.15;;;7.50;;
69246;SDS011;56358;56.328;43.992;2024-03-23T05:50:12;18.83;;;7.45;;
69246;SDS011;56358;56.328;43.992;2024-03-23T05:52:13;15.48;;;7.72;;
69246;SDS011;56358;56.328;43.992;2024-03-23T05:54:14;25.17;;;8.43;;
69246;SDS011;56358;56.328;43.992;2024-03-23T05:56:15;19.95;;;9.00;;
69246;SDS011;56358;56.328;43.992;2024-03-23T05:58:20;19.67;;;8.32;;
69246;SDS011;56358;56.328;43.992;2024-03-23T06:00:21;19.52;;;8.60;;
69246;SDS011;56358;56.328;43.992;2024-03-23T06:02:22;21.42;;;8.10;;
69246;SDS011;56358;56.328;43.992;2024-03-23T06:04:23;16.23;;;7.20;;
69246;SDS011;56358;56.328;43.992;2024-03-23T06:06:24;24.05;;;8.95;;
69246;SDS011;56358;56.328;43.992;2024-03-23T06:08:24;22.02;;;8.40;;
69246;SDS011;56358;56.328;43.992;2024-03-23T06:10:25;22.55;;;8.60;;
69246;SDS011;56358;56.328;43.992;2024-03-23T06:12:26;22.38;;;7.68;;
69246;SDS011;56358;56.328;43.992;2024-03-23T06:14:27;21.73;;;8.18;;
69246;SDS011;56358;56.328;43.992;2024-03-23T06:16:27;20.58;;;8.65;;
69246;SDS011;56358;56.328;43.992;2024-03-23T06:18:28;20.13;;;7.72;;
69246;SDS011;56358;56.328;43.992;2024-03-23T06:20:29;18.70;;;8.00;;
69246;SDS011;56358;56.328;43.992;2024-03-23T06:22:29;18.90;;;7.70;;
69246;SDS011;56358;56.328;43.992;2024-03-23T06:24:30;20.65;;;7.95;;
69246;SDS011;56358;56.328;43.992;2024-03-23T06:26:31;26.98;;;9.23;;
69246;SDS011;56358;56.328;43.992;2024-03-23T06:28:31;22.50;;;9.27;;
69246;SDS011;56358;56.328;43.992;2024-03-23T06:30:32;19.48;;;7.55;;
69246;SDS011;56358;56.328;43.992;2024-03-23T06:32:33;18.90;;;8.57;;
69246;SDS011;56358;56.328;43.992;2024-03-23T06:34:33;20.10;;;8.15;;
69246;SDS011;56358;56.328;43.992;2024-03-23T06:36:34;18.30;;;8.25;;
69246;SDS011;56358;56.328;43.992;2024-03-23T06:38:37;16.92;;;7.63;;
69246;SDS011;56358;56.328;43.992;2024-03-23T06:40:38;22.00;;;7.88;;
69246;SDS011;56358;56.328;43.992;2024-03-23T06:42:39;23.27;;;8.43;;
69246;SDS011;56358;56.328;43.992;2024-03-23T06:44:40;17.00;;;8.20;;
69246;SDS011;56358;56.328;43.992;2024-03-23T06:46:41;22.30;;;9.70;;
69246;SDS011;56358;56.328;43.992;2024-03-23T06:48:41;22.80;;;9.05;;
69246;SDS011;56358;56.328;43.992;2024-03-23T06:50:42;16.90;;;8.25;;
69246;SDS011;56358;56.328;43.992;2024-03-23T06:52:43;23.67;;;9.02;;
69246;SDS011;56358;56.328;43.992;2024-03-23T06:54:43;20.60;;;8.13;;
69246;SDS011;56358;56.328;43.992;2024-03-23T06:56:47;21.25;;;8.57;;
69246;SDS011;56358;56.328;43.992;2024-03-23T06:58:48;20.75;;;9.07;;
69246;SDS011;56358;56.328;43.992;2024-03-23T07:00:48;21.00;;;8.68;;
69246;SDS011;56358;56.328;43.992;2024-03-23T07:02:49;22.33;;;9.25;;
69246;SDS011;56358;56.328;43.992;2024-03-23T07:04:50;21.92;;;8.48;;
69246;SDS011;56358;56.328;43.992;2024-03-23T07:06:51;20.15;;;9.27;;
69246;SDS011;56358;56.328;43.992;2024-03-23T07:08:52;19.48;;;8.23;;
69246;SDS011;56358;56.328;43.992;2024-03-23T07:10:53;24.58;;;8.27;;
69246;SDS011;56358;56.328;43.992;2024-03-23T07:12:53;19.20;;;8.63;;
69246;SDS011;56358;56.328;43.992;2024-03-23T07:14:54;18.10;;;8.40;;
69246;SDS011;56358;56.328;43.992;2024-03-23T07:16:55;23.33;;;8.80;;
69246;SDS011;56358;56.328;43.992;2024-03-23T07:18:55;26.77;;;8.82;;
69246;SDS011;56358;56.328;43.992;2024-03-23T07:20:56;27.75;;;9.07;;
69246;SDS011;56358;56.328;43.992;2024-03-23T07:22:58;24.65;;;7.88;;
69246;SDS011;56358;56.328;43.992;2024-03-23T07:25:00;20.10;;;8.52;;
69246;SDS011;56358;56.328;43.992;2024-03-23T07:27:04;18.85;;;7.15;;
69246;SDS011;56358;56.328;43.992;2024-03-23T07:29:05;18.35;;;8.05;;
69246;SDS011;56358;56.328;43.992;2024-03-23T07:31:07;18.15;;;8.35;;
69246;SDS011;56358;56.328;43.992;2024-03-23T07:33:09;20.50;;;9.55;;
69246;SDS011;56358;56.328;43.992;2024-03-23T07:35:10;23.20;;;8.80;;
69246;SDS011;56358;56.328;43.992;2024-03-23T07:37:10;25.83;;;9.23;;
69246;SDS011;56358;56.328;43.992;2024-03-23T07:39:11;22.80;;;9.07;;
69246;SDS011;56358;56.328;43.992;2024-03-23T07:41:14;22.77;;;9.63;;
69246;SDS011;56358;56.328;43.992;2024-03-23T07:43:20;20.92;;;8.77;;
69246;SDS011;56358;56.328;43.992;2024-03-23T07:45:21;17.98;;;8.27;;
69246;SDS011;56358;56.328;43.992;2024-03-23T07:47:21;21.10;;;8.93;;
69246;SDS011;56358;56.328;43.992;2024-03-23T07:49:22;18.92;;;8.43;;
69246;SDS011;56358;56.328;43.992;2024-03-23T07:51:23;19.20;;;8.93;;
69246;SDS011;56358;56.328;43.992;2024-03-23T07:53:25;15.45;;;7.57;;
69246;SDS011;56358;56.328;43.992;2024-03-23T07:55:26;17.77;;;8.23;;
69246;SDS011;56358;56.328;43.992;2024-03-23T07:57:27;17.42;;;7.65;;
69246;SDS011;56358;56.328;43.992;2024-03-23T07:59:27;22.13;;;8.77;;
69246;SDS011;56358;56.328;43.992;2024-03-23T08:01:31;18.40;;;7.07;;
69246;SDS011;56358;56.328;43.992;2024-03-23T08:03:32;18.52;;;7.90;;
69246;SDS011;56358;56.328;43.992;2024-03-23T08:05:32;18.52;;;7.72;;
69246;SDS011;56358;56.328;43.992;2024-03-23T08:07:34;16.42;;;7.38;;
69246;SDS011;56358;56.328;43.992;2024-03-23T08:09:35;19.35;;;8.07;;
69246;SDS011;56358;56.328;43.992;2024-03-23T08:11:36;17.08;;;8.70;;
69246;SDS011;56358;56.328;43.992;2024-03-23T08:13:38;15.23;;;8.13;;
69246;SDS011;56358;56.328;43.992;2024-03-23T08:15:40;16.92;;;6.88;;
69246;SDS011;56358;56.328;43.992;2024-03-23T08:17:41;17.65;;;6.72;;
69246;SDS011;56358;56.328;43.992;2024-03-23T08:19:42;17.20;;;8.15;;
69246;SDS011;56358;56.328;43.992;2024-03-23T08:21:42;14.30;;;6.65;;
69246;SDS011;56358;56.328;43.992;2024-03-23T08:23:43;17.40;;;7.70;;
69246;SDS011;56358;56.328;43.992;2024-03-23T08:25:44;15.32;;;6.95;;
69246;SDS011;56358;56.328;43.992;2024-03-23T08:27:44;18.35;;;8.05;;
69246;SDS011;56358;56.328;43.992;2024-03-23T08:29:45;15.32;;;7.93;;
69246;SDS011;56358;56.328;43.992;2024-03-23T08:31:46;20.17;;;7.53;;
69246;SDS011;56358;56.328;43.992;2024-03-23T08:33:46;15.95;;;7.68;;
69246;SDS011;56358;56.328;43.992;2024-03-23T08:37:58;16.98;;;7.55;;
69246;SDS011;56358;56.328;43.992;2024-03-23T08:39:59;34.30;;;10.10;;
69246;SDS011;56358;56.328;43.992;2024-03-23T08:41:59;16.00;;;8.05;;
69246;SDS011;56358;56.328;43.992;2024-03-23T08:44:00;16.95;;;7.10;;
69246;SDS011;56358;56.328;43.992;2024-03-23T08:48:12;15.25;;;6.93;;
69246;SDS011;56358;56.328;43.992;2024-03-23T08:50:13;16.83;;;7.68;;
69246;SDS011;56358;56.328;43.992;2024-03-23T08:52:13;18.50;;;7.03;;
69246;SDS011;56358;56.328;43.992;2024-03-23T08:54:14;17.30;;;7.35;;
69246;SDS011;56358;56.328;43.992;2024-03-23T08:56:15;14.70;;;7.13;;
69246;SDS011;56358;56.328;43.992;2024-03-23T08:58:16;13.27;;;7.05;;
69246;SDS011;56358;56.328;43.992;2024-03-23T09:00:17;14.32;;;6.82;;
69246;SDS011;56358;56.328;43.992;2024-03-23T09:02:18;16.35;;;7.20;;
69246;SDS011;56358;56.328;43.992;2024-03-23T09:04:19;17.80;;;7.45;;
69246;SDS011;56358;56.328;43.992;2024-03-23T09:06:20;17.10;;;7.10;;
69246;SDS011;56358;56.328;43.992;2024-03-23T09:08:21;15.07;;;7.35;;
69246;SDS011;56358;56.328;43.992;2024-03-23T09:10:22;14.57;;;7.25;;
69246;SDS011;56358;56.328;43.992;2024-03-23T09:12:23;15.50;;;7.28;;
69246;SDS011;56358;56.328;43.992;2024-03-23T09:14:24;20.60;;;7.28;;
69246;SDS011;56358;56.328;43.992;2024-03-23T09:16:24;15.18;;;7.05;;
69246;SDS011;56358;56.328;43.992;2024-03-23T09:18:25;13.23;;;7.03;;
69246;SDS011;56358;56.328;43.992;2024-03-23T09:20:26;14.60;;;7.40;;
69246;SDS011;56358;56.328;43.992;2024-03-23T09:22:26;13.60;;;6.70;;
69246;SDS011;56358;56.328;43.992;2024-03-23T09:24:27;19.67;;;6.88;;
69246;SDS011;56358;56.328;43.992;2024-03-23T09:26:28;17.95;;;7.25;;
69246;SDS011;56358;56.328;43.992;2024-03-23T09:28:30;13.45;;;7.07;;
69246;SDS011;56358;56.328;43.992;2024-03-23T09:30:31;12.93;;;6.75;;
69246;SDS011;56358;56.328;43.992;2024-03-23T09:32:32;13.63;;;6.95;;
69246;SDS011;56358;56.328;43.992;2024-03-23T09:34:33;14.52;;;6.88;;
69246;SDS011;56358;56.328;43.992;2024-03-23T09:36:34;17.73;;;6.60;;
69246;SDS011;56358;56.328;43.992;2024-03-23T09:38:35;13.10;;;6.47;;
69246;SDS011;56358;56.328;43.992;2024-03-23T09:40:40;15.65;;;7.32;;
69246;SDS011;56358;56.328;43.992;2024-03-23T09:42:49;15.50;;;7.07;;
69246;SDS011;56358;56.328;43.992;2024-03-23T09:44:51;14.13;;;6.63;;
69246;SDS011;56358;56.328;43.992;2024-03-23T09:46:52;19.35;;;8.05;;
69246;SDS011;56358;56.328;43.992;2024-03-23T09:48:52;16.67;;;6.80;;
69246;SDS011;56358;56.328;43.992;2024-03-23T09:50:53;15.13;;;7.05;;
69246;SDS011;56358;56.328;43.992;2024-03-23T09:52:54;13.27;;;6.25;;
69246;SDS011;56358;56.328;43.992;2024-03-23T09:54:55;18.67;;;6.97;;
69246;SDS011;56358;56.328;43.992;2024-03-23T09:56:55;13.00;;;6.10;;
69246;SDS011;56358;56.328;43.992;2024-03-23T09:59:02;15.57;;;6.57;;
69246;SDS011;56358;56.328;43.992;2024-03-23T10:01:03;13.52;;;6.45;;
69246;SDS011;56358;56.328;43.992;2024-03-23T10:03:05;19.58;;;7.07;;
69246;SDS011;56358;56.328;43.992;2024-03-23T10:05:19;14.65;;;6.43;;
69246;SDS011;56358;56.328;43.992;2024-03-23T10:07:24;18.10;;;7.28;;
69246;SDS011;56358;56.328;43.992;2024-03-23T10:09:25;12.93;;;6.65;;
69246;SDS011;56358;56.328;43.992;2024-03-23T10:11:26;13.75;;;6.85;;
69246;SDS011;56358;56.328;43.992;2024-03-23T10:13:29;15.73;;;6.93;;
69246;SDS011;56358;56.328;43.992;2024-03-23T10:15:30;17.42;;;7.85;;
69246;SDS011;56358;56.328;43.992;2024-03-23T10:17:35;14.98;;;7.15;;
69246;SDS011;56358;56.328;43.992;2024-03-23T10:19:38;16.98;;;6.95;;
69246;SDS011;56358;56.328;43.992;2024-03-23T10:21:39;16.10;;;7.28;;
69246;SDS011;56358;56.328;43.992;2024-03-23T10:23:40;15.35;;;6.90;;
69246;SDS011;56358;56.328;43.992;2024-03-23T10:25:42;17.77;;;7.13;;
69246;SDS011;56358;56.328;43.992;2024-03-23T10:27:43;13.88;;;7.47;;
69246;SDS011;56358;56.328;43.992;2024-03-23T10:29:47;12.55;;;6.50;;
69246;SDS011;56358;56.328;43.992;2024-03-23T10:31:49;15.10;;;6.82;;
69246;SDS011;56358;56.328;43.992;2024-03-23T10:33:50;14.65;;;6.97;;
69246;SDS011;56358;56.328;43.992;2024-03-23T10:37:54;16.25;;;7.28;;
69246;SDS011;56358;56.328;43.992;2024-03-23T10:39:57;14.27;;;7.22;;
69246;SDS011;56358;56.328;43.992;2024-03-23T10:41:57;12.23;;;5.97;;
69246;SDS011;56358;56.328;43.992;2024-03-23T10:44:01;14.55;;;6.88;;
69246;SDS011;56358;56.328;43.992;2024-03-23T10:46:02;16.10;;;6.70;;
69246;SDS011;56358;56.328;43.992;2024-03-23T10:48:03;13.60;;;6.97;;
69246;SDS011;56358;56.328;43.992;2024-03-23T10:50:05;12.73;;;5.90;;
69246;SDS011;56358;56.328;43.992;2024-03-23T10:52:06;13.48;;;6.90;;
69246;SDS011;56358;56.328;43.992;2024-03-23T10:54:06;13.27;;;6.68;;
69246;SDS011;56358;56.328;43.992;2024-03-23T10:56:07;15.20;;;7.45;;
69246;SDS011;56358;56.328;43.992;2024-03-23T10:58:09;15.77;;;7.40;;
69246;SDS011;56358;56.328;43.992;2024-03-23T11:02:21;17.27;;;7.30;;
69246;SDS011;56358;56.328;43.992;2024-03-23T11:04:35;13.80;;;6.28;;
69246;SDS011;56358;56.328;43.992;2024-03-23T11:06:39;18.35;;;7.30;;
69246;SDS011;56358;56.328;43.992;2024-03-23T11:08:40;14.52;;;6.53;;
69246;SDS011;56358;56.328;43.992;2024-03-23T11:10:45;14.02;;;6.97;;
69246;SDS011;56358;56.328;43.992;2024-03-23T11:12:46;16.38;;;7.85;;
69246;SDS011;56358;56.328;43.992;2024-03-23T11:14:57;16.80;;;7.18;;
69246;SDS011;56358;56.328;43.992;2024-03-23T11:17:09;17.50;;;6.82;;
69246;SDS011;56358;56.328;43.992;2024-03-23T11:21:55;16.75;;;7.72;;
69246;SDS011;56358;56.328;43.992;2024-03-23T11:24:12;17.17;;;7.45;;
69246;SDS011;56358;56.328;43.992;2024-03-23T11:26:16;16.40;;;6.82;;
69246;SDS011;56358;56.328;43.992;2024-03-23T11:28:16;24.52;;;7.45;;
69246;SDS011;56358;56.328;43.992;2024-03-23T11:32:18;13.43;;;6.25;;
69246;SDS011;56358;56.328;43.992;2024-03-23T11:34:19;19.65;;;9.25;;
69246;SDS011;56358;56.328;43.992;2024-03-23T11:36:20;16.42;;;6.65;;
69246;SDS011;56358;56.328;43.992;2024-03-23T11:38:21;17.00;;;6.70;;
69246;SDS011;56358;56.328;43.992;2024-03-23T11:40:22;14.57;;;6.85;;
69246;SDS011;56358;56.328;43.992;2024-03-23T11:42:23;17.30;;;7.10;;
69246;SDS011;56358;56.328;43.992;2024-03-23T11:44:25;16.27;;;6.93;;
69246;SDS011;56358;56.328;43.992;2024-03-23T11:46:27;16.45;;;6.85;;
69246;SDS011;56358;56.328;43.992;2024-03-23T11:48:28;14.25;;;7.28;;
69246;SDS011;56358;56.328;43.992;2024-03-23T11:50:28;15.00;;;7.47;;
69246;SDS011;56358;56.328;43.992;2024-03-23T11:52:29;21.45;;;8.25;;
69246;SDS011;56358;56.328;43.992;2024-03-23T11:54:30;14.45;;;8.02;;
69246;SDS011;56358;56.328;43.992;2024-03-23T11:56:31;14.45;;;7.68;;
69246;SDS011;56358;56.328;43.992;2024-03-23T11:58:31;14.77;;;6.93;;
69246;SDS011;56358;56.328;43.992;2024-03-23T12:00:33;16.77;;;7.55;;
69246;SDS011;56358;56.328;43.992;2024-03-23T12:02:34;12.38;;;6.95;;
69246;SDS011;56358;56.328;43.992;2024-03-23T12:04:35;15.35;;;7.43;;
69246;SDS011;56358;56.328;43.992;2024-03-23T12:06:36;16.92;;;7.60;;
69246;SDS011;56358;56.328;43.992;2024-03-23T12:08:37;18.50;;;8.20;;
69246;SDS011;56358;56.328;43.992;2024-03-23T12:10:40;16.52;;;8.05;;
69246;SDS011;56358;56.328;43.992;2024-03-23T12:12:41;11.82;;;6.57;;
69246;SDS011;56358;56.328;43.992;2024-03-23T12:14:45;17.30;;;7.70;;
69246;SDS011;56358;56.328;43.992;2024-03-23T12:17:07;21.25;;;7.93;;
69246;SDS011;56358;56.328;43.992;2024-03-23T12:19:09;16.10;;;8.93;;
69246;SDS011;56358;56.328;43.992;2024-03-23T12:21:10;15.48;;;7.88;;
69246;SDS011;56358;56.328;43.992;2024-03-23T12:23:12;17.58;;;8.20;;
69246;SDS011;56358;56.328;43.992;2024-03-23T12:25:13;16.48;;;7.95;;
69246;SDS011;56358;56.328;43.992;2024-03-23T12:27:13;18.90;;;7.68;;
69246;SDS011;56358;56.328;43.992;2024-03-23T12:29:15;19.10;;;8.23;;
69246;SDS011;56358;56.328;43.992;2024-03-23T12:31:16;19.08;;;7.97;;
69246;SDS011;56358;56.328;43.992;2024-03-23T12:33:16;14.18;;;7.35;;
69246;SDS011;56358;56.328;43.992;2024-03-23T12:35:17;19.42;;;9.10;;
69246;SDS011;56358;56.328;43.992;2024-03-23T12:37:18;17.33;;;8.05;;
69246;SDS011;56358;56.328;43.992;2024-03-23T12:39:19;17.80;;;8.38;;
69246;SDS011;56358;56.328;43.992;2024-03-23T12:41:23;21.45;;;9.00;;
69246;SDS011;56358;56.328;43.992;2024-03-23T12:43:24;16.95;;;8.15;;
69246;SDS011;56358;56.328;43.992;2024-03-23T12:45:25;18.92;;;8.70;;
69246;SDS011;56358;56.328;43.992;2024-03-23T12:47:25;18.15;;;7.95;;
69246;SDS011;56358;56.328;43.992;2024-03-23T12:49:27;17.67;;;8.75;;
69246;SDS011;56358;56.328;43.992;2024-03-23T12:51:28;24.70;;;8.82;;
69246;SDS011;56358;56.328;43.992;2024-03-23T12:53:28;20.38;;;9.02;;
69246;SDS011;56358;56.328;43.992;2024-03-23T12:55:29;16.10;;;7.53;;
69246;SDS011;56358;56.328;43.992;2024-03-23T12:57:29;18.60;;;8.73;;
69246;SDS011;56358;56.328;43.992;2024-03-23T12:59:30;19.58;;;8.27;;